Time;durP1;ratioP1;P1;durP2;ratioP2;P2;SDS_P1;SDS_P2;PMS_P1;PMS_P2;Temp;Humidity;BMP_temperature;BMP_pressure;BME280_temperature;BME280_humidity;BME280_pressure;Samples;Min_cycle;Max_cycle;Signal;HPM_P1;HPM_P2
2022/11/03 00:00:27;;;;;;;5.37;2.40;;;12.40;99.90;;;;;;5031711;28;20174;-78
2022/11/03 00:02:53;;;;;;;8.80;2.63;;;12.40;99.90;;;;;;5013857;28;20178;-78
2022/11/03 00:08:03;;;;;;;8.88;2.78;;;12.40;99.90;;;;;;5030588;28;20224;-77
2022/11/03 00:10:33;;;;;;;11.30;2.75;;;12.40;99.90;;;;;;5030908;28;20170;-77
2022/11/03 00:12:58;;;;;;;8.27;2.35;;;12.40;99.90;;;;;;5031508;28;20608;-77
2022/11/03 00:15:24;;;;;;;6.47;2.30;;;12.50;99.90;;;;;;5032034;28;20196;-77
2022/11/03 00:17:50;;;;;;;8.40;2.77;;;12.50;99.90;;;;;;5031911;28;20236;-77
2022/11/03 00:20:15;;;;;;;8.10;2.30;;;12.50;99.90;;;;;;5031887;28;20173;-78
2022/11/03 00:22:41;;;;;;;10.53;2.83;;;12.60;99.90;;;;;;5013843;28;20185;-78
2022/11/03 00:25:07;;;;;;;11.23;2.97;;;12.60;99.90;;;;;;5030703;28;20653;-78
2022/11/03 00:27:33;;;;;;;7.47;2.40;;;12.60;99.90;;;;;;5031822;28;20189;-77
2022/11/03 00:29:58;;;;;;;8.47;2.27;;;12.60;99.90;;;;;;5031443;28;20713;-77
2022/11/03 00:32:24;;;;;;;16.07;2.70;;;12.60;99.90;;;;;;5031722;28;20292;-77
2022/11/03 00:34:50;;;;;;;6.60;2.27;;;12.70;99.90;;;;;;4995196;28;20171;-77
2022/11/03 00:37:15;;;;;;;8.53;2.70;;;12.70;99.90;;;;;;4994233;28;20197;-78
2022/11/03 00:39:41;;;;;;;9.30;2.40;;;12.70;99.90;;;;;;5011815;28;20166;-78
2022/11/03 00:42:07;;;;;;;7.90;2.30;;;12.70;99.90;;;;;;4994273;28;20201;-78
2022/11/03 00:44:32;;;;;;;8.13;2.20;;;12.70;99.90;;;;;;5011920;28;20627;-77
2022/11/03 00:46:58;;;;;;;8.50;2.90;;;12.70;99.90;;;;;;5011766;28;20198;-78
2022/11/03 00:49:24;;;;;;;11.53;3.10;;;12.70;99.90;;;;;;5011290;28;20253;-77
2022/11/03 00:51:50;;;;;;;7.97;2.50;;;12.80;99.90;;;;;;4994104;28;20174;-77
2022/11/03 00:54:15;;;;;;;8.27;2.30;;;12.70;99.90;;;;;;5011554;28;20166;-77
2022/11/03 00:56:43;;;;;;;8.63;3.23;;;12.70;99.90;;;;;;5011596;28;20224;-78
2022/11/03 00:59:09;;;;;;;13.88;3.28;;;12.80;99.90;;;;;;5020165;28;20166;-78
2022/11/03 01:01:41;;;;;;;9.18;2.30;;;12.80;99.90;;;;;;5030524;28;20170;-77
2022/11/03 01:06:53;;;;;;;5.22;2.13;;;12.80;99.90;;;;;;5021678;28;20281;-77
2022/11/03 01:09:26;;;;;;;10.48;3.28;;;12.80;99.90;;;;;;5011784;28;20171;-78
2022/11/03 01:11:55;;;;;;;5.55;2.60;;;12.80;99.90;;;;;;5013932;28;20174;-77
2022/11/03 01:14:21;;;;;;;9.20;2.60;;;12.80;99.90;;;;;;5015521;28;20178;-77
2022/11/03 01:16:47;;;;;;;11.07;2.67;;;12.80;99.90;;;;;;5015331;28;20229;-78
2022/11/03 01:19:13;;;;;;;10.10;2.60;;;12.80;99.90;;;;;;5006134;28;20206;-77
2022/11/03 01:21:38;;;;;;;5.07;2.40;;;12.90;99.90;;;;;;5023622;28;20532;-77
2022/11/03 01:24:04;;;;;;;10.63;3.97;;;12.90;99.90;;;;;;5034894;28;20191;-77
2022/11/03 01:26:30;;;;;;;9.60;2.90;;;12.90;99.90;;;;;;5035032;28;20220;-78
2022/11/03 01:28:58;;;;;;;7.63;2.87;;;12.90;99.90;;;;;;5035002;28;20576;-78
2022/11/03 01:31:25;;;;;;;9.10;2.95;;;12.90;99.90;;;;;;5034782;28;20165;-78
2022/11/03 01:33:52;;;;;;;8.18;3.30;;;12.90;99.90;;;;;;5034690;28;20201;-78
2022/11/03 01:36:18;;;;;;;7.25;3.60;;;12.90;99.90;;;;;;5034787;28;20668;-78
2022/11/03 01:38:45;;;;;;;9.18;3.13;;;12.90;99.90;;;;;;5034812;28;20626;-77
2022/11/03 01:41:17;;;;;;;10.73;2.80;;;12.90;99.90;;;;;;5034779;28;20731;-78
2022/11/03 01:43:43;;;;;;;8.05;2.35;;;12.80;99.90;;;;;;5034270;28;20587;-77
2022/11/03 01:46:26;;;;;;;6.67;2.30;;;12.80;99.90;;;;;;5034504;28;20205;-78
2022/11/03 01:49:09;;;;;;;6.72;2.55;;;12.80;99.90;;;;;;5034579;28;20564;-77
2022/11/03 01:51:36;;;;;;;7.30;2.13;;;12.90;99.90;;;;;;5068233;23;20212;-74
2022/11/03 01:54:07;;;;;;;11.75;2.40;;;12.80;99.90;;;;;;5062267;28;20197;-72
2022/11/03 01:56:35;;;;;;;8.20;2.03;;;12.80;99.90;;;;;;5067314;28;20188;-72
2022/11/03 01:59:02;;;;;;;9.20;2.88;;;12.80;99.90;;;;;;5070005;28;20192;-72
2022/11/03 02:01:29;;;;;;;5.10;1.90;;;12.80;99.90;;;;;;5051546;28;20203;-72
2022/11/03 02:04:00;;;;;;;10.30;1.88;;;12.80;99.90;;;;;;5073997;28;20169;-72
2022/11/03 02:06:28;;;;;;;7.80;2.58;;;12.80;99.90;;;;;;5074216;28;20164;-72
2022/11/03 02:09:06;;;;;;;7.22;2.50;;;12.80;99.90;;;;;;5072883;28;20168;-73
2022/11/03 02:14:17;;;;;;;7.50;2.13;;;12.80;99.90;;;;;;5074012;28;20176;-73
2022/11/03 02:16:51;;;;;;;6.77;2.00;;;12.80;99.90;;;;;;5072608;28;20508;-73
2022/11/03 02:19:37;;;;;;;6.75;2.17;;;12.80;99.90;;;;;;5056041;28;20563;-73
2022/11/03 02:22:22;;;;;;;12.07;2.45;;;12.70;99.90;;;;;;5073394;28;20184;-73
2022/11/03 02:24:55;;;;;;;9.15;3.80;;;12.70;99.90;;;;;;5034686;28;20523;-74
2022/11/03 02:27:21;;;;;;;8.05;2.90;;;12.70;99.90;;;;;;5033808;28;20532;-72
2022/11/03 02:29:47;;;;;;;6.00;2.20;;;12.70;99.90;;;;;;5033667;28;20170;-73
2022/11/03 02:32:13;;;;;;;9.00;1.63;;;12.70;99.90;;;;;;5033058;28;20355;-73
2022/11/03 02:34:55;;;;;;;11.20;2.33;;;12.80;99.90;;;;;;5033772;28;20256;-74
2022/11/03 02:37:29;;;;;;;8.20;3.03;;;12.70;99.90;;;;;;5015780;28;20170;-74
2022/11/03 02:40:44;;;;;;;9.55;2.17;;;12.80;99.90;;;;;;5033682;28;20164;-74
2022/11/03 02:43:12;;;;;;;7.40;2.05;;;12.70;99.90;;;;;;4971800;28;20687;-74
2022/11/03 02:45:39;;;;;;;5.28;2.83;;;12.70;99.90;;;;;;5027495;28;20599;-74
2022/11/03 02:48:05;;;;;;;11.25;2.58;;;12.70;99.90;;;;;;5038956;28;20541;-73
2022/11/03 02:50:33;;;;;;;7.93;2.13;;;12.70;99.90;;;;;;5042088;28;20205;-73
2022/11/03 02:52:59;;;;;;;10.15;2.40;;;12.70;99.90;;;;;;5038033;28;20200;-73
2022/11/03 02:55:40;;;;;;;6.72;2.00;;;12.70;99.90;;;;;;5053231;28;20165;-74
2022/11/03 02:58:24;;;;;;;6.53;1.80;;;12.70;99.90;;;;;;5068806;28;20164;-74
2022/11/03 03:01:01;;;;;;;14.40;4.38;;;12.70;99.90;;;;;;5035346;28;20675;-74
2022/11/03 03:03:39;;;;;;;7.25;1.75;;;12.60;99.90;;;;;;5052898;28;20683;-74
2022/11/03 03:06:14;;;;;;;6.18;1.73;;;12.60;99.90;;;;;;5053013;28;20199;-74
2022/11/03 03:08:44;;;;;;;5.13;1.77;;;12.60;99.90;;;;;;5018714;28;20172;-74
2022/11/03 03:11:12;;;;;;;8.43;2.10;;;12.60;99.90;;;;;;5052874;28;20196;-74
2022/11/03 03:13:40;;;;;;;3.72;1.50;;;12.70;99.90;;;;;;5034727;28;20541;-74
2022/11/03 03:16:14;;;;;;;6.13;2.08;;;12.60;99.90;;;;;;5052608;28;20161;-74
2022/11/03 03:18:43;;;;;;;7.07;1.90;;;12.60;99.90;;;;;;5052808;28;20211;-74
2022/11/03 03:21:23;;;;;;;6.22;2.33;;;12.60;99.90;;;;;;5052517;28;20185;-74
2022/11/03 03:24:08;;;;;;;9.65;2.35;;;12.60;99.90;;;;;;5034775;28;20184;-74
2022/11/03 03:26:43;;;;;;;7.53;2.20;;;12.60;99.90;;;;;;5052747;28;20175;-74
2022/11/03 03:29:26;;;;;;;7.65;1.98;;;12.70;99.90;;;;;;5052640;28;20237;-74
2022/11/03 03:31:59;;;;;;;7.18;2.17;;;12.70;99.90;;;;;;5017882;28;20197;-74
2022/11/03 03:34:26;;;;;;;5.38;1.88;;;12.70;99.90;;;;;;5051886;28;20247;-74
2022/11/03 03:36:57;;;;;;;7.40;2.97;;;12.70;99.90;;;;;;5052509;28;20185;-74
2022/11/03 03:39:26;;;;;;;6.80;2.00;;;12.70;99.90;;;;;;5034428;28;20675;-74
2022/11/03 03:41:55;;;;;;;7.05;2.20;;;12.70;99.90;;;;;;5051486;28;20533;-74
2022/11/03 03:44:22;;;;;;;6.10;1.83;;;12.70;99.90;;;;;;5054164;28;20164;-74
2022/11/03 03:47:01;;;;;;;7.63;1.98;;;12.70;99.90;;;;;;5040453;28;20179;-74
2022/11/03 03:49:28;;;;;;;9.60;1.88;;;12.70;99.90;;;;;;5051076;28;20520;-74
2022/11/03 03:51:53;;;;;;;6.50;1.75;;;12.70;99.90;;;;;;5051777;28;20671;-74
2022/11/03 03:54:19;;;;;;;7.10;1.83;;;12.70;99.90;;;;;;5052055;28;20244;-74
2022/11/03 03:56:52;;;;;;;6.18;1.48;;;12.70;99.90;;;;;;5052048;28;20161;-74
2022/11/03 03:59:18;;;;;;;5.80;1.58;;;12.70;99.90;;;;;;5052312;28;20165;-74
2022/11/03 04:01:44;;;;;;;8.30;2.00;;;12.70;99.90;;;;;;5051573;28;20188;-73
2022/11/03 04:04:09;;;;;;;4.57;2.07;;;12.70;99.90;;;;;;5051953;28;20178;-74
2022/11/03 04:06:35;;;;;;;5.80;2.03;;;12.70;99.90;;;;;;5051951;28;20168;-74
2022/11/03 04:09:01;;;;;;;4.90;1.80;;;12.60;99.90;;;;;;5033933;28;20169;-74
2022/11/03 04:22:30;;;;;;;9.05;2.20;;;12.60;99.90;;;;;;5033568;28;20246;-73
2022/11/03 04:24:57;;;;;;;6.50;2.30;;;12.60;99.90;;;;;;5051676;28;20173;-73
2022/11/03 04:27:34;;;;;;;11.52;2.30;;;12.60;99.90;;;;;;5051789;28;20169;-72
2022/11/03 04:30:19;;;;;;;5.75;2.50;;;12.60;99.90;;;;;;5051721;28;20176;-73
2022/11/03 04:32:47;;;;;;;5.78;1.92;;;12.60;99.90;;;;;;5051257;28;20197;-73
2022/11/03 04:35:17;;;;;;;5.78;1.55;;;12.60;99.90;;;;;;5033702;28;20165;-73
2022/11/03 04:37:44;;;;;;;8.35;1.70;;;12.60;99.90;;;;;;5051547;28;20165;-73
2022/11/03 04:40:15;;;;;;;6.05;1.75;;;12.60;99.90;;;;;;5051359;28;20196;-73
2022/11/03 04:42:42;;;;;;;4.88;1.77;;;12.60;99.90;;;;;;5058788;28;20177;-73
2022/11/03 04:45:28;;;;;;;4.93;1.63;;;12.60;99.90;;;;;;5059636;28;20173;-73
2022/11/03 04:47:54;;;;;;;8.63;2.25;;;12.60;99.90;;;;;;5055541;28;20311;-73
2022/11/03 04:50:22;;;;;;;10.68;2.03;;;12.70;99.90;;;;;;5053837;28;20648;-73
2022/11/03 04:52:53;;;;;;;7.45;1.60;;;12.70;99.90;;;;;;5055275;28;20545;-73
2022/11/03 04:55:19;;;;;;;6.28;2.45;;;12.70;99.90;;;;;;5055138;28;20668;-73
2022/11/03 04:57:46;;;;;;;5.43;1.90;;;12.70;99.90;;;;;;5054981;28;20157;-72
2022/11/03 05:00:17;;;;;;;6.07;2.20;;;12.70;99.90;;;;;;5055372;28;20177;-73
2022/11/03 05:02:44;;;;;;;9.95;2.22;;;12.70;99.90;;;;;;5055276;28;20180;-74
2022/11/03 05:05:16;;;;;;;4.95;1.52;;;12.80;99.90;;;;;;5055137;28;20161;-73
2022/11/03 05:07:42;;;;;;;8.52;2.40;;;12.70;99.90;;;;;;5037858;28;20538;-73
2022/11/03 05:10:14;;;;;;;5.37;1.73;;;12.80;99.90;;;;;;5054928;28;20165;-73
2022/11/03 05:12:41;;;;;;;7.32;1.60;;;12.70;99.90;;;;;;5055092;28;20630;-73
2022/11/03 05:15:25;;;;;;;6.13;1.50;;;12.70;99.90;;;;;;5055076;28;20165;-74
2022/11/03 05:17:51;;;;;;;5.03;1.83;;;12.80;99.90;;;;;;5055302;28;20165;-74
2022/11/03 05:20:30;;;;;;;5.97;2.03;;;12.80;99.90;;;;;;5053695;28;20219;-74
2022/11/03 05:22:56;;;;;;;5.97;1.65;;;12.80;99.90;;;;;;5036854;28;20954;-74
2022/11/03 05:25:35;;;;;;;7.83;2.43;;;12.80;99.90;;;;;;5020745;28;20268;-74
2022/11/03 05:28:02;;;;;;;8.70;2.33;;;12.90;99.90;;;;;;5037158;28;20567;-74
2022/11/03 05:30:28;;;;;;;6.70;1.92;;;12.90;99.90;;;;;;5055461;28;20946;-74
2022/11/03 05:32:54;;;;;;;7.75;2.17;;;12.90;99.90;;;;;;5055078;28;20199;-73
2022/11/03 05:35:22;;;;;;;5.73;1.90;;;12.90;99.90;;;;;;5055359;28;20248;-74
2022/11/03 05:37:49;;;;;;;6.63;2.25;;;12.90;99.90;;;;;;5037007;28;20613;-74
2022/11/03 05:40:22;;;;;;;13.40;2.40;;;13.00;99.90;;;;;;5037586;28;20169;-74
2022/11/03 05:43:01;;;;;;;6.82;1.85;;;13.00;99.90;;;;;;5037338;28;20180;-73
2022/11/03 05:45:34;;;;;;;3.28;2.03;;;13.00;99.90;;;;;;5054667;28;20172;-74
2022/11/03 05:48:02;;;;;;;8.73;2.30;;;13.00;99.90;;;;;;5054759;28;20173;-72
2022/11/03 05:50:32;;;;;;;10.40;2.13;;;13.10;99.90;;;;;;5053732;28;20332;-73
2022/11/03 05:53:24;;;;;;;5.00;1.70;;;13.10;99.90;;;;;;5054224;28;20200;-74
2022/11/03 05:55:50;;;;;;;4.15;1.40;;;13.10;99.90;;;;;;5020209;28;20259;-73
2022/11/03 05:58:40;;;;;;;4.00;1.50;;;13.20;99.90;;;;;;5036052;28;20319;-73
2022/11/03 06:01:17;;;;;;;10.93;2.38;;;13.20;99.90;;;;;;5054293;28;20734;-74
2022/11/03 06:03:43;;;;;;;4.43;1.80;;;13.20;99.90;;;;;;5054035;28;20255;-73
2022/11/03 06:06:23;;;;;;;9.80;1.90;;;13.30;99.90;;;;;;5036428;28;20272;-73
2022/11/03 06:08:50;;;;;;;7.15;1.98;;;13.30;99.90;;;;;;5054149;28;20187;-75
2022/11/03 06:11:27;;;;;;;4.53;1.80;;;13.30;99.90;;;;;;5054042;28;20219;-76
2022/11/03 06:13:56;;;;;;;9.70;2.70;;;13.30;99.90;;;;;;5053691;28;20254;-75
2022/11/03 06:16:46;;;;;;;11.30;2.78;;;13.30;99.90;;;;;;5037061;28;20201;-75
2022/11/03 06:19:20;;;;;;;5.22;1.70;;;13.30;99.90;;;;;;5016321;28;20166;-76
2022/11/03 06:21:48;;;;;;;5.85;1.67;;;13.30;99.90;;;;;;5025369;28;20191;-76
2022/11/03 06:24:16;;;;;;;6.38;2.33;;;13.40;99.90;;;;;;5050491;28;20181;-76
2022/11/03 06:26:45;;;;;;;6.95;1.75;;;13.30;99.90;;;;;;5073800;28;20198;-76
2022/11/03 06:29:16;;;;;;;8.05;1.95;;;13.30;99.90;;;;;;5066467;28;20197;-76
2022/11/03 06:31:45;;;;;;;5.80;1.58;;;13.30;99.90;;;;;;5035438;28;20287;-76
2022/11/03 06:34:39;;;;;;;7.20;2.63;;;13.30;99.90;;;;;;5053273;28;20284;-76
2022/11/03 06:37:34;;;;;;;7.82;1.65;;;13.30;99.90;;;;;;5050177;28;20219;-76
2022/11/03 06:40:20;;;;;;;6.35;1.52;;;13.30;99.90;;;;;;5009599;28;20637;-76
2022/11/03 06:42:46;;;;;;;5.60;2.05;;;13.40;99.90;;;;;;5058508;28;20173;-76
2022/11/03 06:45:32;;;;;;;6.00;1.93;;;13.40;99.90;;;;;;5063703;28;20184;-76
2022/11/03 06:47:59;;;;;;;5.57;2.88;;;13.40;99.90;;;;;;5031180;28;20659;-76
2022/11/03 06:50:30;;;;;;;5.85;1.80;;;13.40;99.90;;;;;;5054966;28;20510;-76
2022/11/03 06:52:57;;;;;;;8.10;2.10;;;13.40;99.90;;;;;;5058640;28;20203;-76
2022/11/03 06:55:31;;;;;;;7.38;2.00;;;13.40;99.90;;;;;;5008072;28;20181;-76
2022/11/03 06:58:14;;;;;;;4.63;1.48;;;13.40;99.90;;;;;;5019804;28;20193;-76
2022/11/03 07:00:41;;;;;;;7.72;1.98;;;13.40;99.90;;;;;;5051955;28;20603;-76
2022/11/03 07:03:25;;;;;;;6.95;1.73;;;13.50;99.90;;;;;;5050472;28;20180;-75
2022/11/03 07:06:13;;;;;;;6.80;2.13;;;13.50;99.90;;;;;;5031812;28;20176;-77
2022/11/03 07:08:47;;;;;;;8.85;1.95;;;13.40;99.90;;;;;;5032291;28;20185;-75
2022/11/03 07:11:25;;;;;;;8.02;1.88;;;13.50;99.90;;;;;;5053301;28;20193;-77
2022/11/03 07:14:13;;;;;;;6.20;1.83;;;13.50;99.90;;;;;;5052275;28;20215;-78
2022/11/03 07:16:46;;;;;;;7.93;2.08;;;13.50;99.90;;;;;;5051481;28;20256;-77
2022/11/03 07:19:21;;;;;;;5.90;1.60;;;13.50;99.90;;;;;;5017960;28;20276;-77
2022/11/03 07:22:15;;;;;;;9.57;1.85;;;13.50;99.90;;;;;;5051259;28;20730;-75
2022/11/03 07:24:44;;;;;;;7.13;2.10;;;13.50;99.90;;;;;;5045255;28;20231;-75
2022/11/03 07:27:34;;;;;;;5.68;1.73;;;13.60;99.90;;;;;;5052263;28;20567;-76
2022/11/03 07:30:22;;;;;;;6.38;2.05;;;13.60;99.90;;;;;;5044850;28;20192;-76
2022/11/03 07:32:54;;;;;;;5.22;1.80;;;13.60;99.90;;;;;;5051999;28;20196;-76
2022/11/03 07:35:41;;;;;;;10.65;2.55;;;13.70;99.90;;;;;;5054169;28;20248;-76
2022/11/03 07:38:14;;;;;;;6.65;2.40;;;13.70;99.90;;;;;;5054408;28;20168;-76
2022/11/03 07:40:41;;;;;;;6.38;2.00;;;13.90;99.90;;;;;;5071909;28;20683;-76
2022/11/03 07:43:26;;;;;;;4.70;1.20;;;13.90;99.90;;;;;;5071814;28;20172;-77
2022/11/03 07:46:00;;;;;;;7.83;1.90;;;14.10;99.90;;;;;;5071821;28;20566;-77
2022/11/03 07:48:37;;;;;;;5.13;1.67;;;14.20;99.90;;;;;;5071793;28;20653;-77
2022/11/03 07:51:23;;;;;;;9.83;2.27;;;14.30;99.90;;;;;;5071658;28;20618;-77
2022/11/03 07:53:53;;;;;;;5.65;2.58;;;14.50;99.90;;;;;;5068372;28;20623;-74
2022/11/03 07:56:19;;;;;;;6.97;2.20;;;14.60;99.90;;;;;;5051428;28;20644;-73
2022/11/03 07:59:10;;;;;;;7.90;2.90;;;14.70;99.90;;;;;;5051553;28;20584;-74
2022/11/03 08:01:53;;;;;;;4.73;1.40;;;14.90;99.90;;;;;;5062292;28;20193;-74
2022/11/03 08:04:23;;;;;;;10.90;2.80;;;15.00;99.90;;;;;;5053759;28;20581;-73
2022/11/03 08:06:50;;;;;;;6.27;1.60;;;15.10;99.90;;;;;;5071817;28;20601;-73
2022/11/03 08:09:16;;;;;;;8.07;2.10;;;15.10;99.90;;;;;;5054019;28;20562;-74
2022/11/03 08:11:42;;;;;;;6.83;1.63;;;15.20;99.90;;;;;;5072657;28;21271;-73
2022/11/03 08:14:09;;;;;;;8.43;2.37;;;15.20;99.90;;;;;;5058827;28;21332;-73
2022/11/03 08:16:35;;;;;;;7.27;2.50;;;15.20;99.90;;;;;;5051458;28;20911;-74
2022/11/03 08:19:01;;;;;;;6.90;2.03;;;15.20;99.90;;;;;;5028981;28;20585;-75
2022/11/03 08:21:27;;;;;;;4.67;1.80;;;15.20;99.90;;;;;;5001081;28;20724;-74
2022/11/03 08:23:53;;;;;;;5.40;1.70;;;15.30;99.90;;;;;;5048605;28;20686;-73
2022/11/03 08:26:20;;;;;;;5.37;1.90;;;15.30;99.90;;;;;;5033021;28;21182;-74
2022/11/03 08:28:47;;;;;;;7.10;2.00;;;15.30;99.90;;;;;;5050738;28;20623;-73
2022/11/03 08:31:15;;;;;;;6.50;2.67;;;15.40;99.90;;;;;;5050820;28;20608;-74
2022/11/03 08:33:41;;;;;;;9.43;1.63;;;15.40;99.90;;;;;;5050833;28;20623;-73
2022/11/03 08:36:08;;;;;;;7.30;1.70;;;15.50;99.90;;;;;;5050550;28;20607;-74
2022/11/03 08:38:34;;;;;;;4.37;1.67;;;15.60;99.90;;;;;;5050929;28;20610;-73
2022/11/03 08:41:01;;;;;;;4.07;1.73;;;15.60;99.90;;;;;;5050901;28;20698;-74
2022/11/03 08:43:27;;;;;;;8.13;1.77;;;15.60;99.90;;;;;;5050896;28;20602;-73
2022/11/03 08:45:54;;;;;;;5.70;1.83;;;15.60;99.90;;;;;;5033212;28;21013;-73
2022/11/03 08:48:26;;;;;;;6.77;2.00;;;15.70;99.90;;;;;;5053095;28;20591;-73
2022/11/03 08:50:55;;;;;;;8.40;1.97;;;15.80;99.90;;;;;;5032755;28;20219;-73
2022/11/03 08:53:23;;;;;;;6.23;1.50;;;15.80;99.90;;;;;;5050437;28;20615;-74
2022/11/03 08:55:50;;;;;;;8.63;1.73;;;15.90;99.90;;;;;;5050600;28;20583;-74
2022/11/03 08:58:15;;;;;;;3.90;1.57;;;16.00;99.90;;;;;;5068090;28;20570;-74
2022/11/03 09:00:41;;;;;;;8.37;2.97;;;16.10;99.90;;;;;;5070633;28;20681;-73
2022/11/03 09:03:07;;;;;;;13.00;2.50;;;16.20;99.90;;;;;;5070840;28;20608;-73
2022/11/03 09:05:33;;;;;;;4.03;1.93;;;16.20;99.90;;;;;;5052649;28;20601;-73
2022/11/03 09:07:59;;;;;;;7.33;1.23;;;16.30;99.90;;;;;;5071083;28;20970;-74
2022/11/03 09:10:25;;;;;;;7.10;1.70;;;16.30;99.90;;;;;;5052927;28;20644;-73
2022/11/03 09:12:52;;;;;;;5.73;2.37;;;16.40;99.90;;;;;;5052702;28;20690;-73
2022/11/03 09:15:17;;;;;;;4.00;1.57;;;16.40;99.90;;;;;;5070882;28;21259;-73
2022/11/03 09:17:43;;;;;;;6.00;1.50;;;16.40;99.90;;;;;;5070737;28;20566;-74
2022/11/03 09:20:10;;;;;;;4.73;2.00;;;16.40;99.90;;;;;;5070837;28;20208;-74
2022/11/03 09:22:36;;;;;;;6.77;1.97;;;16.50;99.90;;;;;;5031765;28;20225;-74
2022/11/03 09:25:02;;;;;;;8.30;1.67;;;16.50;99.90;;;;;;5047188;28;21056;-74
2022/11/03 09:27:28;;;;;;;3.80;1.70;;;16.40;99.90;;;;;;5049988;28;20185;-74
2022/11/03 09:29:53;;;;;;;9.00;2.23;;;16.40;99.90;;;;;;5050568;28;20963;-74
2022/11/03 09:32:19;;;;;;;6.20;1.63;;;16.40;99.90;;;;;;5041929;28;20682;-73
2022/11/03 09:34:45;;;;;;;8.70;2.23;;;16.40;99.90;;;;;;5057923;28;20667;-73
2022/11/03 09:37:11;;;;;;;3.87;1.23;;;16.40;99.90;;;;;;5068137;28;20671;-74
2022/11/03 09:39:37;;;;;;;8.97;1.50;;;16.50;99.90;;;;;;5070351;28;20407;-74
2022/11/03 09:42:04;;;;;;;7.97;2.10;;;16.50;99.90;;;;;;5051900;28;20205;-74
2022/11/03 09:44:35;;;;;;;5.77;2.50;;;16.60;99.90;;;;;;5054191;28;20275;-75
2022/11/03 09:47:02;;;;;;;5.20;1.13;;;16.60;99.90;;;;;;5034204;28;20565;-74
2022/11/03 09:49:31;;;;;;;10.33;1.83;;;16.60;99.90;;;;;;5039723;28;20939;-73
2022/11/03 09:51:57;;;;;;;8.00;2.13;;;16.60;99.90;;;;;;5035930;28;20713;-73
2022/11/03 09:54:23;;;;;;;7.80;1.70;;;16.60;99.90;;;;;;5052101;28;21077;-73
2022/11/03 09:56:49;;;;;;;6.37;1.40;;;16.60;99.90;;;;;;5034043;28;20561;-73
2022/11/03 09:59:17;;;;;;;4.70;1.80;;;16.50;99.90;;;;;;5050057;28;20575;-72
2022/11/03 10:01:47;;;;;;;7.63;1.53;;;16.50;99.90;;;;;;5053951;28;20591;-73
2022/11/03 10:04:14;;;;;;;3.87;1.10;;;16.50;99.90;;;;;;5054070;28;20583;-74
2022/11/03 10:06:40;;;;;;;5.30;1.77;;;16.40;99.90;;;;;;5053666;28;20590;-73
2022/11/03 10:09:13;;;;;;;7.57;1.40;;;16.30;99.90;;;;;;5053843;28;20575;-74
2022/11/03 10:11:39;;;;;;;6.60;1.50;;;16.30;99.90;;;;;;5053601;28;20213;-74
2022/11/03 10:14:12;;;;;;;5.20;1.60;;;16.20;99.90;;;;;;5042486;28;20618;-74
2022/11/03 10:16:40;;;;;;;6.07;2.10;;;16.20;99.90;;;;;;5038540;28;20593;-74
2022/11/03 10:19:10;;;;;;;8.87;2.13;;;16.20;99.90;;;;;;5068667;28;20633;-74
2022/11/03 10:21:38;;;;;;;4.20;1.23;;;16.10;99.90;;;;;;5057132;28;21142;-74
2022/11/03 10:24:04;;;;;;;7.50;2.13;;;16.10;99.90;;;;;;5068080;28;20574;-74
2022/11/03 10:26:43;;;;;;;6.30;1.73;;;16.10;99.90;;;;;;5063065;28;20577;-74
2022/11/03 10:29:20;;;;;;;3.70;1.37;;;16.10;99.90;;;;;;5058269;28;20881;-74
2022/11/03 10:31:50;;;;;;;4.07;1.50;;;16.10;99.90;;;;;;5064622;28;20621;-73
2022/11/03 10:34:36;;;;;;;11.90;1.67;;;16.20;99.90;;;;;;5072710;28;20664;-73
2022/11/03 10:37:16;;;;;;;7.43;1.30;;;16.10;99.90;;;;;;5055380;28;20559;-73
2022/11/03 10:39:46;;;;;;;4.23;1.50;;;16.10;99.90;;;;;;5061856;28;20607;-74
2022/11/03 10:42:16;;;;;;;10.20;1.93;;;16.10;99.90;;;;;;5049807;28;20619;-73
2022/11/03 10:44:42;;;;;;;6.73;1.30;;;16.10;99.90;;;;;;5052885;28;20594;-72
2022/11/03 10:47:33;;;;;;;8.83;1.97;;;16.10;99.90;;;;;;5043227;28;20594;-72
2022/11/03 10:50:17;;;;;;;6.67;1.80;;;16.10;99.90;;;;;;5063036;28;20199;-73
2022/11/03 10:52:43;;;;;;;8.63;1.50;;;16.10;99.90;;;;;;5064526;28;20619;-72
2022/11/03 10:55:10;;;;;;;6.40;1.90;;;16.00;99.90;;;;;;5048009;28;21444;-73
2022/11/03 10:57:36;;;;;;;5.60;1.83;;;16.10;99.90;;;;;;5052797;28;20180;-73
2022/11/03 11:00:03;;;;;;;2.97;1.03;;;16.10;99.90;;;;;;5060858;28;20668;-73
2022/11/03 11:02:35;;;;;;;4.60;1.33;;;16.10;99.90;;;;;;5072119;28;21166;-73
2022/11/03 11:05:08;;;;;;;6.20;1.13;;;16.10;99.90;;;;;;5055810;28;20607;-73
2022/11/03 11:07:43;;;;;;;5.23;1.47;;;16.20;99.90;;;;;;5048683;28;20625;-74
2022/11/03 11:10:26;;;;;;;6.60;1.60;;;16.10;99.90;;;;;;5050934;28;20590;-73
2022/11/03 11:13:11;;;;;;;6.90;1.93;;;16.00;99.90;;;;;;5034075;28;20635;-73
2022/11/03 11:15:40;;;;;;;4.80;1.63;;;16.00;99.90;;;;;;5035800;28;20950;-73
2022/11/03 11:18:06;;;;;;;4.60;1.30;;;16.00;99.90;;;;;;5067776;28;20933;-73
2022/11/03 11:20:43;;;;;;;4.07;1.70;;;16.00;99.90;;;;;;5072393;28;20662;-73
2022/11/03 11:23:30;;;;;;;4.73;2.00;;;16.10;99.90;;;;;;5044369;28;20669;-73
2022/11/03 11:26:08;;;;;;;5.13;1.67;;;16.10;99.90;;;;;;5061584;28;20594;-73
2022/11/03 11:28:38;;;;;;;4.00;1.60;;;16.20;99.90;;;;;;5072375;28;21052;-73
2022/11/03 11:31:25;;;;;;;4.70;1.17;;;16.20;99.90;;;;;;5071989;28;20601;-73
2022/11/03 11:34:17;;;;;;;5.20;1.50;;;16.20;99.90;;;;;;5072128;28;20614;-74
2022/11/03 11:36:44;;;;;;;2.90;1.13;;;16.20;99.90;;;;;;5072121;28;20914;-74
2022/11/03 11:39:32;;;;;;;7.73;1.67;;;16.30;99.90;;;;;;5072221;28;20934;-74
2022/11/03 11:42:10;;;;;;;2.63;1.13;;;16.30;99.90;;;;;;5058603;28;20621;-74
2022/11/03 11:44:42;;;;;;;5.53;1.13;;;16.30;99.90;;;;;;5061897;28;20578;-73
2022/11/03 11:47:24;;;;;;;6.20;1.30;;;16.30;99.90;;;;;;5042979;28;20599;-74
2022/11/03 11:50:13;;;;;;;7.90;1.80;;;16.30;99.90;;;;;;5051780;28;20618;-74
2022/11/03 11:52:44;;;;;;;5.40;1.53;;;16.20;99.90;;;;;;5017376;28;20619;-74
2022/11/03 11:55:25;;;;;;;8.00;1.63;;;16.20;99.90;;;;;;5051275;28;20571;-74
2022/11/03 11:57:52;;;;;;;6.00;1.40;;;16.10;99.90;;;;;;5052101;28;20572;-74
2022/11/03 12:00:26;;;;;;;6.40;1.53;;;16.20;99.90;;;;;;5051674;28;20958;-74
2022/11/03 12:02:53;;;;;;;4.17;1.50;;;16.10;99.90;;;;;;5033620;28;20994;-74
2022/11/03 12:05:25;;;;;;;7.23;1.33;;;16.00;99.90;;;;;;5051802;28;20564;-73
2022/11/03 12:07:51;;;;;;;4.73;1.50;;;16.00;99.90;;;;;;5051460;28;20583;-75
2022/11/03 12:10:22;;;;;;;6.20;1.37;;;16.00;99.90;;;;;;5054300;28;20590;-74
2022/11/03 12:12:49;;;;;;;7.13;1.87;;;15.90;99.90;;;;;;5069400;28;20615;-74
2022/11/03 12:15:53;;;;;;;8.20;2.03;;;15.90;99.90;;;;;;5070185;28;20570;-74
2022/11/03 12:18:33;;;;;;;5.17;1.13;;;15.90;99.90;;;;;;5071531;28;20555;-74
2022/11/03 12:21:00;;;;;;;5.90;2.13;;;16.00;99.90;;;;;;5071427;28;20685;-74
2022/11/03 12:23:40;;;;;;;7.93;2.40;;;15.90;99.90;;;;;;5071066;28;20607;-74
2022/11/03 12:26:31;;;;;;;7.40;2.10;;;16.00;99.90;;;;;;5071807;28;21226;-74
2022/11/03 12:28:57;;;;;;;4.67;1.70;;;16.00;99.90;;;;;;5053642;28;20563;-74
2022/11/03 12:31:22;;;;;;;4.57;1.57;;;16.00;99.90;;;;;;5071152;28;20585;-73
2022/11/03 12:33:48;;;;;;;4.47;1.57;;;16.00;99.90;;;;;;5053120;28;20227;-74
2022/11/03 12:36:14;;;;;;;4.23;1.60;;;16.00;99.90;;;;;;5071344;28;20180;-75
2022/11/03 12:38:41;;;;;;;6.03;1.97;;;16.00;99.90;;;;;;5071206;28;20563;-75
2022/11/03 12:41:24;;;;;;;7.60;2.53;;;16.00;99.90;;;;;;5070920;28;21159;-74
2022/11/03 12:43:56;;;;;;;4.13;1.47;;;16.00;99.90;;;;;;5071220;28;20961;-74
2022/11/03 12:46:22;;;;;;;5.20;1.50;;;16.10;99.90;;;;;;5053277;28;20582;-74
2022/11/03 12:48:51;;;;;;;4.03;1.20;;;16.00;99.90;;;;;;5071376;28;20646;-74
2022/11/03 12:51:21;;;;;;;5.60;1.73;;;16.00;99.90;;;;;;5070803;28;20607;-75
2022/11/03 12:53:47;;;;;;;6.30;2.03;;;16.00;99.90;;;;;;5070811;28;20618;-75
2022/11/03 12:56:14;;;;;;;5.80;1.67;;;15.90;99.90;;;;;;5071038;28;20585;-75
2022/11/03 12:58:40;;;;;;;4.43;1.23;;;15.80;99.90;;;;;;5042505;28;20588;-75
2022/11/03 13:01:09;;;;;;;7.43;1.30;;;15.90;99.90;;;;;;5052692;28;20606;-73
2022/11/03 13:03:36;;;;;;;3.80;1.97;;;15.90;99.90;;;;;;5036274;28;21025;-75
2022/11/03 13:06:08;;;;;;;3.87;1.37;;;15.90;99.90;;;;;;5065999;28;20628;-75
2022/11/03 13:08:35;;;;;;;6.00;1.53;;;15.80;99.90;;;;;;5038016;28;20679;-75
2022/11/03 13:11:01;;;;;;;4.20;1.77;;;15.70;99.90;;;;;;5055082;28;20587;-74
2022/11/03 13:13:26;;;;;;;5.37;1.67;;;15.80;99.90;;;;;;5036604;28;20610;-74
2022/11/03 13:15:53;;;;;;;7.20;1.33;;;15.80;99.90;;;;;;5055138;28;20188;-74
2022/11/03 13:18:21;;;;;;;4.10;1.40;;;15.80;99.90;;;;;;5054765;28;20983;-74
2022/11/03 13:20:47;;;;;;;5.13;1.37;;;15.80;99.90;;;;;;5055055;28;20590;-75
2022/11/03 13:23:13;;;;;;;4.63;1.37;;;15.80;99.90;;;;;;5054176;28;20566;-74
2022/11/03 13:25:39;;;;;;;4.63;1.20;;;15.80;99.90;;;;;;5054968;28;20212;-74